createdAt,value
2022-10-23T00:00:34.043Z,99454.41
2022-10-23T00:01:38.386Z,99455.79
2022-10-23T00:02:43.282Z,99452.81
2022-10-23T00:03:48.851Z,99460.55
2022-10-23T00:04:53.077Z,99463.45
2022-10-23T00:05:57.186Z,99466.52
2022-10-23T00:07:01.300Z,99464.98
2022-10-23T00:08:05.376Z,99466.91
2022-10-23T00:09:09.488Z,99460.47
2022-10-23T00:10:13.585Z,99470.5
2022-10-23T00:11:17.696Z,99471.72
2022-10-23T00:12:21.768Z,99476.59
2022-10-23T00:13:25.872Z,99474.73
2022-10-23T00:14:29.976Z,99467.05
2022-10-23T00:15:34.050Z,99468.03
2022-10-23T00:16:38.148Z,99469.41
2022-10-23T00:17:43.610Z,99472.12
2022-10-23T00:18:48.925Z,99477.19
2022-10-23T00:19:53.190Z,99474.56
2022-10-23T00:20:57.244Z,99476.14
2022-10-23T00:22:01.372Z,99481.42
2022-10-23T00:23:05.457Z,99480.8
2022-10-23T00:24:10.551Z,99484.81
2022-10-23T00:25:14.641Z,99488.38
2022-10-23T00:26:18.726Z,99482.89
2022-10-23T00:27:22.832Z,99485.94
2022-10-23T00:28:26.928Z,99494.72
2022-10-23T00:29:31.001Z,99488.5
2022-10-23T00:30:35.110Z,99484.69
2022-10-23T00:31:39.213Z,99494.59
2022-10-23T00:32:43.317Z,99473.2
2022-10-23T00:33:47.397Z,99496.39
2022-10-23T00:34:51.495Z,99491.51
2022-10-23T00:35:55.585Z,99494.48
2022-10-23T00:36:59.699Z,99491.34
2022-10-23T00:38:03.806Z,99498.83
2022-10-23T00:39:07.926Z,99498.08
2022-10-23T00:40:12.000Z,99496.86
2022-10-23T00:41:16.104Z,99497.22
2022-10-23T00:42:20.164Z,99498.92
2022-10-23T00:43:24.269Z,99502.06
2022-10-23T00:44:28.346Z,99499.8
2022-10-23T00:45:32.413Z,99502.16
2022-10-23T00:46:36.556Z,99502.76
2022-10-23T00:47:40.625Z,99498.7
2022-10-23T00:48:44.733Z,99504.46
2022-10-23T00:49:48.795Z,99507.66
2022-10-23T00:50:52.893Z,99513.11
2022-10-23T00:51:57.001Z,99510.1
2022-10-23T00:53:01.089Z,99507.76
2022-10-23T00:54:25.504Z,99498.47
2022-10-23T00:55:29.776Z,99501.25
2022-10-23T00:56:33.853Z,99504.38
2022-10-23T00:57:37.952Z,99504.9
2022-10-23T00:58:42.053Z,99495.56
2022-10-23T00:59:46.148Z,99499.79
2022-10-23T01:00:50.245Z,99508.45
2022-10-23T01:01:54.673Z,99503.18
2022-10-23T01:02:59.011Z,99505.03
2022-10-23T01:04:03.099Z,99503.7
2022-10-23T01:05:07.185Z,99509.45
2022-10-23T01:06:11.267Z,99507.02
2022-10-23T01:07:15.344Z,99505.45
2022-10-23T01:08:19.410Z,99499.98
2022-10-23T01:09:23.480Z,99502.17
2022-10-23T01:10:27.596Z,99498.75
2022-10-23T01:11:31.681Z,99496.72
2022-10-23T01:12:35.766Z,99500.91
2022-10-23T01:13:39.845Z,99500.37
2022-10-23T01:14:43.977Z,99495.2
2022-10-23T01:15:48.062Z,99505.16
2022-10-23T01:16:52.168Z,99512.59
2022-10-23T01:17:56.238Z,99498.57
2022-10-23T01:19:00.330Z,99496.7
2022-10-23T01:20:04.424Z,99512.53
2022-10-23T01:21:08.543Z,99509.86
2022-10-23T01:22:12.710Z,99512.72
2022-10-23T01:23:16.929Z,99514.63
2022-10-23T01:24:20.996Z,99516.61
2022-10-23T01:25:25.062Z,99521.63
2022-10-23T01:26:29.174Z,99516.56
2022-10-23T01:27:33.239Z,99520.03
2022-10-23T01:28:37.321Z,99525.8
2022-10-23T01:29:41.416Z,99514.52
2022-10-23T01:30:45.523Z,99518.3
2022-10-23T01:31:49.633Z,99516.2
2022-10-23T01:32:53.709Z,99518.94
2022-10-23T01:33:57.770Z,99511.39
2022-10-23T01:35:01.902Z,99508.3
2022-10-23T01:36:05.982Z,99508.59
2022-10-23T01:37:10.084Z,99510.28
2022-10-23T01:38:14.307Z,99507.38
2022-10-23T01:39:18.405Z,99503.29
2022-10-23T01:40:22.495Z,99509.69
2022-10-23T01:41:26.571Z,99511.44
2022-10-23T01:42:30.681Z,99514.81
2022-10-23T01:43:34.779Z,99504.58
2022-10-23T01:44:38.863Z,99510.98
2022-10-23T01:45:42.943Z,99508.64
2022-10-23T01:46:47.029Z,99511.83
2022-10-23T01:47:51.153Z,99500.33
2022-10-23T01:48:55.223Z,99510.8
2022-10-23T01:49:59.316Z,99507.38
2022-10-23T01:51:03.393Z,99506.04
2022-10-23T01:52:07.483Z,99455.58
2022-10-23T01:53:11.566Z,99515.84
2022-10-23T01:54:15.633Z,99515.52
2022-10-23T01:55:19.708Z,99513.77
2022-10-23T01:56:23.823Z,99505.22
2022-10-23T01:57:27.930Z,99499.41
2022-10-23T01:58:32.004Z,99507.13
2022-10-23T01:59:36.131Z,99517.27
2022-10-23T02:00:40.211Z,99520.97
2022-10-23T02:01:44.631Z,99514.77
2022-10-23T02:02:48.957Z,99517.14
2022-10-23T02:03:53.200Z,99524.12
2022-10-23T02:04:57.434Z,99522.97
2022-10-23T02:06:01.494Z,99526.09
2022-10-23T02:07:05.580Z,99523.83
2022-10-23T02:08:09.644Z,99527.2
2022-10-23T02:09:14.058Z,99529.08
2022-10-23T02:10:18.106Z,99533.91
2022-10-23T02:11:22.211Z,99532.67
2022-10-23T02:13:31.394Z,99527.27
2022-10-23T02:14:35.526Z,99529.36
2022-10-23T02:15:39.599Z,99533.14
2022-10-23T02:16:43.676Z,99536.56
2022-10-23T02:17:47.772Z,99531.62
2022-10-23T02:18:51.865Z,99530.23
2022-10-23T02:19:55.965Z,99535.53
2022-10-23T02:21:00.043Z,99532.22
2022-10-23T02:22:04.107Z,99537.49
2022-10-23T02:23:08.209Z,99536.56
2022-10-23T02:24:12.276Z,99536.45
2022-10-23T02:25:16.355Z,99540.47
2022-10-23T02:26:20.421Z,99535.17
2022-10-23T02:27:24.524Z,99532.57
2022-10-23T02:28:28.592Z,99532.62
2022-10-23T02:29:32.672Z,99535.64
2022-10-23T02:30:36.768Z,99537.56
2022-10-23T02:31:40.886Z,99530
2022-10-23T02:32:45.512Z,99538.16
2022-10-23T02:33:49.635Z,99529.7
2022-10-23T02:34:53.699Z,99540.94
2022-10-23T02:35:57.820Z,99540.94
2022-10-23T02:37:01.913Z,99544.02
2022-10-23T02:38:05.981Z,99542.69
2022-10-23T02:39:10.063Z,99530.17
2022-10-23T02:40:14.152Z,99534.94
2022-10-23T02:41:18.227Z,99540.01
2022-10-23T02:42:22.320Z,99547.22
2022-10-23T02:43:26.413Z,99542.27
2022-10-23T02:44:30.522Z,99547.62
2022-10-23T02:45:34.683Z,99543.61
2022-10-23T02:46:38.857Z,99544.89
2022-10-23T02:47:43.516Z,99534.61
2022-10-23T02:48:48.231Z,99540.58
2022-10-23T02:49:52.339Z,99545.88
2022-10-23T02:50:56.416Z,99541.4
2022-10-23T02:52:00.514Z,99542.22
2022-10-23T02:53:04.621Z,99553.08
2022-10-23T02:54:08.688Z,99541.22
2022-10-23T02:55:12.794Z,99551.3
2022-10-23T02:56:16.929Z,99546.08
2022-10-23T02:57:21.044Z,99555.31
2022-10-23T02:58:25.110Z,99552.16
2022-10-23T02:59:29.209Z,99559.66
2022-10-23T03:00:33.316Z,99553.49
2022-10-23T03:01:37.671Z,99550.02
2022-10-23T03:02:42.126Z,99553.95
2022-10-23T03:03:46.290Z,99556.24
2022-10-23T03:04:50.367Z,99548.6
2022-10-23T03:05:54.442Z,99559.33
2022-10-23T03:06:58.520Z,99556.76
2022-10-23T03:08:02.627Z,99551.77
2022-10-23T03:09:06.688Z,99556.29
2022-10-23T03:10:10.748Z,99562.52
2022-10-23T03:11:14.827Z,99561.19
2022-10-23T03:12:18.892Z,99564.96
2022-10-23T03:13:22.963Z,99564.24
2022-10-23T03:14:27.023Z,99560.64
2022-10-23T03:15:31.077Z,99558.45
2022-10-23T03:16:35.175Z,99566.64
2022-10-23T03:17:39.258Z,99570.55
2022-10-23T03:18:43.380Z,99574.56
2022-10-23T03:19:47.469Z,99562.72
2022-10-23T03:20:51.578Z,99576.41
2022-10-23T03:21:55.671Z,99576.83
2022-10-23T03:22:59.884Z,99582.07
2022-10-23T03:24:03.986Z,99575.48
2022-10-23T03:25:08.108Z,99574.15
2022-10-23T03:26:12.231Z,99581.87
2022-10-23T03:27:16.456Z,99573.69
2022-10-23T03:28:20.604Z,99571.94
2022-10-23T03:29:24.719Z,99566.73
2022-10-23T03:30:28.891Z,99566.21
2022-10-23T03:31:32.966Z,99571.83
2022-10-23T03:32:37.090Z,99577
2022-10-23T03:33:41.186Z,99569.16
2022-10-23T03:34:45.299Z,99564.47
2022-10-23T03:35:49.455Z,99574.44
2022-10-23T03:36:53.638Z,99573.91
2022-10-23T03:37:57.730Z,99575.66
2022-10-23T03:39:01.843Z,99562.41
2022-10-23T03:40:05.964Z,99565.8
2022-10-23T03:41:10.063Z,99560.04
2022-10-23T03:42:14.145Z,99571.56
2022-10-23T03:43:18.222Z,99570.08
2022-10-23T03:44:22.321Z,99566.83
2022-10-23T03:45:26.412Z,99570.16
2022-10-23T03:46:30.507Z,99567.88
2022-10-23T03:47:34.604Z,99573.84
2022-10-23T03:48:38.798Z,99575.59
2022-10-23T03:49:42.896Z,99577.43
2022-10-23T03:50:47.001Z,99574.34
2022-10-23T03:51:51.084Z,99578.03
2022-10-23T03:52:55.215Z,99573.29
2022-10-23T03:53:59.303Z,99581.2
2022-10-23T03:55:03.404Z,99579.11
2022-10-23T03:56:07.512Z,99570.44
2022-10-23T03:57:11.600Z,99576.77
2022-10-23T03:58:15.691Z,99579.45
2022-10-23T03:59:19.775Z,99580.03
2022-10-23T04:00:23.927Z,99533.43
2022-10-23T04:01:28.327Z,99580.78
2022-10-23T04:02:32.792Z,99575.55
2022-10-23T04:03:37.053Z,99582.89
2022-10-23T04:04:41.139Z,99582.7
2022-10-23T04:05:45.235Z,99571.02
2022-10-23T04:06:49.576Z,99578.86
2022-10-23T04:07:54.054Z,99584.16
2022-10-23T04:08:58.250Z,99567.41
2022-10-23T04:10:02.437Z,99566.87
2022-10-23T04:11:06.548Z,99565.77
2022-10-23T04:12:10.631Z,99568.39
2022-10-23T04:13:14.751Z,99573.82
2022-10-23T04:14:18.819Z,99566.23
2022-10-23T04:15:22.940Z,99574.49
2022-10-23T04:16:27.110Z,99573.82
2022-10-23T04:17:31.220Z,99573.41
2022-10-23T04:18:35.401Z,99572.07
2022-10-23T04:19:39.498Z,99585.51
2022-10-23T04:20:43.593Z,99582.52
2022-10-23T04:21:47.686Z,99583.34
2022-10-23T04:22:51.777Z,99585.69
2022-10-23T04:23:55.838Z,99587.83
2022-10-23T04:24:59.900Z,99587.44
2022-10-23T04:26:04.035Z,99578.12
2022-10-23T04:27:08.107Z,99582.3
2022-10-23T04:28:12.232Z,99576.94
2022-10-23T04:29:16.327Z,99524.84
2022-10-23T04:30:20.423Z,99585.8
2022-10-23T04:31:24.517Z,99580.98
2022-10-23T04:32:28.603Z,99579.8
2022-10-23T04:33:32.725Z,99584.12
2022-10-23T04:34:36.782Z,99580.8
2022-10-23T04:35:40.887Z,99575.44
2022-10-23T04:36:44.975Z,99581.2
2022-10-23T04:37:49.060Z,99578.4
2022-10-23T04:38:53.142Z,99578.58
2022-10-23T04:39:57.236Z,99583.94
2022-10-23T04:41:01.343Z,99583.42
2022-10-23T04:42:05.536Z,99580.28
2022-10-23T04:43:09.645Z,99582.37
2022-10-23T04:44:13.738Z,99584.12
2022-10-23T04:45:17.796Z,99572.71
2022-10-23T04:46:21.861Z,99579.16
2022-10-23T04:47:25.937Z,99574.16
2022-10-23T04:48:30.278Z,99575.14
2022-10-23T04:49:34.372Z,99572.3
2022-10-23T04:50:38.473Z,99579.23
2022-10-23T04:51:42.638Z,99575.39
2022-10-23T04:52:46.875Z,99566.02
2022-10-23T04:53:50.966Z,99571.2
2022-10-23T04:54:55.036Z,99574.85
2022-10-23T04:55:59.157Z,99571.77
2022-10-23T04:57:03.291Z,99580.05
2022-10-23T04:58:07.345Z,99566.64
2022-10-23T04:59:11.443Z,99570.88
2022-10-23T05:00:15.519Z,99563.73
2022-10-23T05:01:19.772Z,99576.13
2022-10-23T05:02:24.071Z,99568.92
2022-10-23T05:03:28.152Z,99565.38
2022-10-23T05:04:32.236Z,99575.72
2022-10-23T05:05:36.337Z,99570.47
2022-10-23T05:06:40.420Z,99571.37
2022-10-23T05:07:45.138Z,99572.92
2022-10-23T05:08:49.707Z,99564.91
2022-10-23T05:09:53.807Z,99562.45
2022-10-23T05:10:57.935Z,99575.85
2022-10-23T05:12:02.042Z,99578.12
2022-10-23T05:13:06.134Z,99577.19
2022-10-23T05:14:10.253Z,99577.19
2022-10-23T05:15:14.333Z,99572
2022-10-23T05:16:18.417Z,99570.32
2022-10-23T05:17:22.495Z,99580.16
2022-10-23T05:18:26.585Z,99575.14
2022-10-23T05:19:30.648Z,99571.12
2022-10-23T05:20:34.745Z,99578.17
2022-10-23T05:21:38.827Z,99578.22
2022-10-23T05:22:43.052Z,99555.7
2022-10-23T05:23:47.305Z,99583.17
2022-10-23T05:24:51.848Z,99573.46
2022-10-23T05:25:55.926Z,99570.89
2022-10-23T05:27:00.040Z,99571.81
2022-10-23T05:28:04.126Z,99568.7
2022-10-23T05:29:08.205Z,99573.36
2022-10-23T05:30:12.307Z,99573.92
2022-10-23T05:31:16.415Z,99578.17
2022-10-23T05:33:25.624Z,99569.2
2022-10-23T05:34:29.768Z,99573.31
2022-10-23T05:35:33.852Z,99575.89
2022-10-23T05:36:37.920Z,99563.09
2022-10-23T05:37:42.001Z,99572.39
2022-10-23T05:38:46.119Z,99570.02
2022-10-23T05:39:50.205Z,99574.37
2022-10-23T05:40:54.268Z,99579.13
2022-10-23T05:41:58.335Z,99573.09
2022-10-23T05:43:02.409Z,99567.91
2022-10-23T05:44:06.513Z,99569.02
2022-10-23T05:45:10.575Z,99574.73
2022-10-23T05:46:14.687Z,99575.66
2022-10-23T05:47:18.810Z,99570.3
2022-10-23T05:48:35.662Z,99577.28
2022-10-23T05:49:39.819Z,99573.27
2022-10-23T05:50:43.915Z,99568.2
2022-10-23T05:51:47.988Z,99576.83
2022-10-23T05:52:52.083Z,99575.95
2022-10-23T05:53:56.156Z,99572.34
2022-10-23T05:55:00.231Z,99572.58
2022-10-23T05:56:04.438Z,99537.45
2022-10-23T05:57:08.747Z,99574.51
2022-10-23T05:58:12.922Z,99570.78
2022-10-23T05:59:22.820Z,99565.78
2022-10-23T06:00:27.442Z,99562.45
2022-10-23T06:01:31.844Z,99577.88
2022-10-23T06:02:36.420Z,99557.97
2022-10-23T06:03:40.628Z,99568.23
2022-10-23T06:04:44.730Z,99566.02
2022-10-23T06:05:48.973Z,99573.23
2022-10-23T06:06:53.065Z,99564.84
2022-10-23T06:07:57.215Z,99572.58
2022-10-23T06:09:01.385Z,99570.14
2022-10-23T06:10:05.485Z,99576.03
2022-10-23T06:11:09.612Z,99577.02
2022-10-23T06:12:13.738Z,99578.35
2022-10-23T06:13:17.940Z,99574.28
2022-10-23T06:14:22.070Z,99581.55
2022-10-23T06:15:26.168Z,99579.51
2022-10-23T06:16:30.248Z,99583.52
2022-10-23T06:17:34.350Z,99573.28
2022-10-23T06:18:38.425Z,99574.85
2022-10-23T06:19:42.515Z,99576.31
2022-10-23T06:20:46.622Z,99574.56
2022-10-23T06:21:50.691Z,99578.27
2022-10-23T06:22:54.770Z,99582
2022-10-23T06:23:58.837Z,99591.14
2022-10-23T06:25:02.909Z,99593.23
2022-10-23T06:26:06.990Z,99593.41
2022-10-23T06:27:11.394Z,99587.72
2022-10-23T06:28:20.521Z,99591.33
2022-10-23T06:29:24.920Z,99590.09
2022-10-23T06:30:29.182Z,99593.25
2022-10-23T06:31:33.454Z,99596.58
2022-10-23T06:32:37.548Z,99606.56
2022-10-23T06:33:41.611Z,99599.59
2022-10-23T06:34:45.714Z,99600.17
2022-10-23T06:35:49.833Z,99604.42
2022-10-23T06:36:53.951Z,99602.09
2022-10-23T06:37:58.029Z,99603.25
2022-10-23T06:39:02.142Z,99616.11
2022-10-23T06:40:06.237Z,99621.34
2022-10-23T06:41:10.362Z,99621.41
2022-10-23T06:42:14.468Z,99620.66
2022-10-23T06:43:18.562Z,99624.09
2022-10-23T06:44:22.664Z,99620.25
2022-10-23T06:45:26.769Z,99629.86
2022-10-23T06:46:30.858Z,99623.22
2022-10-23T06:47:34.946Z,99614.89
2022-10-23T06:48:39.158Z,99621.03
2022-10-23T06:49:43.251Z,99617.89
2022-10-23T06:50:47.387Z,99623.5
2022-10-23T06:51:51.487Z,99623.14
2022-10-23T06:52:55.638Z,99621.63
2022-10-23T06:53:59.742Z,99628.2
2022-10-23T06:55:03.810Z,99626.73
2022-10-23T06:56:07.905Z,99625.4
2022-10-23T06:57:12.004Z,99622.38
2022-10-23T06:58:16.111Z,99631.64
2022-10-23T06:59:20.196Z,99629.33
2022-10-23T07:00:24.274Z,99620.87
2022-10-23T07:01:28.775Z,99632.12
2022-10-23T07:02:33.284Z,99626.82
2022-10-23T07:03:37.407Z,99622.8
2022-10-23T07:04:41.517Z,99633.88
2022-10-23T07:05:45.654Z,99631.52
2022-10-23T07:06:49.747Z,99636.91
2022-10-23T07:07:53.867Z,99632.98
2022-10-23T07:08:58.015Z,99635.61
2022-10-23T07:10:02.281Z,99642.09
2022-10-23T07:11:06.493Z,99644.73
2022-10-23T07:12:11.106Z,99652.31
2022-10-23T07:13:15.229Z,99646.91
2022-10-23T07:14:28.365Z,99644.28
2022-10-23T07:15:35.401Z,99659.08
2022-10-23T07:16:39.567Z,99645.38
2022-10-23T07:17:43.677Z,99653
2022-10-23T07:18:47.852Z,99654.8
2022-10-23T07:19:52.018Z,99655.11
2022-10-23T07:20:56.122Z,99657.73
2022-10-23T07:22:00.221Z,99650.91
2022-10-23T07:23:04.394Z,99669.02
2022-10-23T07:24:08.532Z,99665.07
2022-10-23T07:25:12.728Z,99662.37
2022-10-23T07:26:17.074Z,99670.35
2022-10-23T07:27:21.191Z,99665.69
2022-10-23T07:28:25.353Z,99662.62
2022-10-23T07:29:29.588Z,99667.62
2022-10-23T07:30:36.533Z,99662.67
2022-10-23T07:31:40.670Z,99656.39
2022-10-23T07:32:44.767Z,99656.16
2022-10-23T07:33:49.580Z,99656.32
2022-10-23T07:34:55.635Z,99658.3
2022-10-23T07:35:59.789Z,99662.73
2022-10-23T07:37:03.936Z,99657.04
2022-10-23T07:38:08.047Z,99661.67
2022-10-23T07:39:12.158Z,99666.28
2022-10-23T07:40:16.339Z,99655.92
2022-10-23T07:41:20.439Z,99665.12
2022-10-23T07:42:26.485Z,99659.41
2022-10-23T07:43:33.690Z,99669.65
2022-10-23T07:44:40.194Z,99666.33
2022-10-23T07:45:44.353Z,99664.75
2022-10-23T07:46:48.646Z,99669.65
2022-10-23T07:47:52.800Z,99666.63
2022-10-23T07:48:57.484Z,99666.84
2022-10-23T07:50:07.111Z,99672.5
2022-10-23T07:51:11.200Z,99671.97
2022-10-23T07:52:15.366Z,99674.13
2022-10-23T07:53:19.586Z,99673.3
2022-10-23T07:54:23.885Z,99679.06
2022-10-23T07:55:28.029Z,99682.98
2022-10-23T07:56:32.175Z,99692.76
2022-10-23T07:57:39.252Z,99682.23
2022-10-23T07:58:43.375Z,99679.11
2022-10-23T07:59:47.557Z,99683.84
2022-10-23T08:00:51.732Z,99679.48
2022-10-23T08:01:57.038Z,99671.91
2022-10-23T08:03:01.551Z,99680.89
2022-10-23T08:04:07.445Z,99665.73
2022-10-23T08:05:17.572Z,99676.46
2022-10-23T08:06:24.329Z,99671.22
2022-10-23T08:07:28.483Z,99674.81
2022-10-23T08:08:35.884Z,99668.13
2022-10-23T08:09:40.318Z,99670.8
2022-10-23T08:10:46.778Z,99660.45
2022-10-23T08:11:50.935Z,99662.25
2022-10-23T08:12:55.127Z,99659.47
2022-10-23T08:13:59.347Z,99658.98
2022-10-23T08:15:03.566Z,99657.72
2022-10-23T08:16:07.749Z,99653.64
2022-10-23T08:17:11.862Z,99651.91
2022-10-23T08:18:16.027Z,99655.52
2022-10-23T08:19:20.201Z,99662.03
2022-10-23T08:20:24.381Z,99655.11
2022-10-23T08:21:28.496Z,99651.89
2022-10-23T08:22:32.810Z,99645.79
2022-10-23T08:23:37.188Z,99656.91
2022-10-23T08:24:41.809Z,99654.52
2022-10-23T08:25:46.074Z,99658.14
2022-10-23T08:26:50.270Z,99645.98
2022-10-23T08:27:54.412Z,99650.92
2022-10-23T08:28:58.567Z,99659.55
2022-10-23T08:30:03.450Z,99659.31
2022-10-23T08:31:07.630Z,99662.86
2022-10-23T08:32:11.992Z,99660
2022-10-23T08:33:16.268Z,99656.92
2022-10-23T08:34:20.390Z,99655.58
2022-10-23T08:35:24.557Z,99652.84
2022-10-23T08:36:28.693Z,99652.2
2022-10-23T08:37:32.810Z,99658.83
2022-10-23T08:38:36.896Z,99659.24
2022-10-23T08:40:43.771Z,99661.05
2022-10-23T08:41:47.900Z,99658.67
2022-10-23T08:42:51.976Z,99654.14
2022-10-23T08:43:56.119Z,99658.31
2022-10-23T08:45:00.245Z,99648.3
2022-10-23T08:46:08.566Z,99644.17
2022-10-23T08:47:13.651Z,99650.59
2022-10-23T08:48:17.784Z,99642.14
2022-10-23T08:49:21.897Z,99649.17
2022-10-23T08:53:37.439Z,99645.39
2022-10-23T08:54:41.557Z,99646.27
2022-10-23T08:55:45.680Z,99641.55
2022-10-23T08:56:49.813Z,99649.41
2022-10-23T08:57:54.058Z,99647.02
2022-10-23T08:58:59.598Z,99651.97
2022-10-23T09:00:03.779Z,99654.77
2022-10-23T09:01:08.179Z,99650.75
2022-10-23T09:02:12.825Z,99649.29
2022-10-23T09:03:17.118Z,99652.02
2022-10-23T09:04:21.228Z,99652.2
2022-10-23T09:05:25.340Z,99644.27
2022-10-23T09:06:29.484Z,99653.95
2022-10-23T09:07:33.629Z,99654.16
2022-10-23T09:08:37.741Z,99656.64
2022-10-23T09:09:41.930Z,99652.91
2022-10-23T09:10:50.633Z,99650.17
2022-10-23T09:11:55.710Z,99646.34
2022-10-23T09:12:59.912Z,99651.74
2022-10-23T09:14:04.069Z,99650.45
2022-10-23T09:15:08.221Z,99644.27
2022-10-23T09:16:12.416Z,99654.31
2022-10-23T09:17:16.577Z,99649.24
2022-10-23T09:18:20.701Z,99651.22
2022-10-23T09:19:24.887Z,99647.72
2022-10-23T09:20:29.103Z,99653.3
2022-10-23T09:21:33.306Z,99654.76
2022-10-23T09:22:37.465Z,99651.62
2022-10-23T09:23:41.644Z,99653.52
2022-10-23T09:24:47.003Z,99648.04
2022-10-23T09:25:57.214Z,99653.66
2022-10-23T09:27:01.623Z,99654.34
2022-10-23T09:28:06.819Z,99659.41
2022-10-23T09:29:10.965Z,99654.28
2022-10-23T09:30:15.057Z,99652.53
2022-10-23T09:31:19.187Z,99645.38
2022-10-23T09:32:23.348Z,99644.19
2022-10-23T09:33:27.470Z,99649.77
2022-10-23T09:34:31.579Z,99639.94
2022-10-23T09:35:35.870Z,99647.36
2022-10-23T09:36:40.009Z,99651.89
2022-10-23T09:37:44.872Z,99650.48
2022-10-23T09:38:49.459Z,99640.13
2022-10-23T09:39:53.601Z,99651.53
2022-10-23T09:40:57.706Z,99639.42
2022-10-23T09:42:01.829Z,99651.53
2022-10-23T09:43:05.999Z,99639.64
2022-10-23T09:44:10.137Z,99631.97
2022-10-23T09:45:14.301Z,99628.18
2022-10-23T09:46:18.433Z,99636.49
2022-10-23T09:47:22.582Z,99634.33
2022-10-23T09:48:26.763Z,99637.65
2022-10-23T09:49:30.970Z,99637.31
2022-10-23T09:50:35.099Z,99633.52
2022-10-23T09:51:39.331Z,99635.23
2022-10-23T09:52:46.110Z,99635.09
2022-10-23T09:53:50.241Z,99630.5
2022-10-23T09:54:56.620Z,99634.15
2022-10-23T09:56:00.769Z,99626.25
2022-10-23T09:57:04.908Z,99627.63
2022-10-23T09:58:09.153Z,99625.31
2022-10-23T09:59:13.322Z,99625.17
2022-10-23T10:00:17.554Z,99620.23
2022-10-23T10:01:21.911Z,99623.77
2022-10-23T10:02:26.331Z,99614.39
2022-10-23T10:03:30.484Z,99622.02
2022-10-23T10:04:34.665Z,99623.44
2022-10-23T10:05:38.835Z,99618.14
2022-10-23T10:06:42.967Z,99617.84
2022-10-23T10:07:47.160Z,99627.75
2022-10-23T10:08:51.261Z,99627.75
2022-10-23T10:09:55.419Z,99628.81
2022-10-23T10:10:59.566Z,99634.41
2022-10-23T10:12:03.657Z,99630.61
2022-10-23T10:13:09.970Z,99637.23
2022-10-23T10:14:18.061Z,99632.37
2022-10-23T10:15:22.187Z,99632.33
2022-10-23T10:16:26.311Z,99624.66
2022-10-23T10:17:30.584Z,99618.19
2022-10-23T10:18:34.691Z,99615.56
2022-10-23T10:19:38.821Z,99617.95
2022-10-23T10:20:42.950Z,99621.56
2022-10-23T10:21:47.123Z,99617.73
2022-10-23T10:22:51.297Z,99617.73
2022-10-23T10:23:55.655Z,99615.5
2022-10-23T10:24:59.836Z,99619
2022-10-23T10:26:04.001Z,99628.2
2022-10-23T10:27:08.201Z,99618.37
2022-10-23T10:28:12.341Z,99617.84
2022-10-23T10:29:16.457Z,99616.25
2022-10-23T10:30:20.598Z,99605.56
2022-10-23T10:31:24.750Z,99603.73
2022-10-23T10:32:28.887Z,99603.19
2022-10-23T10:33:32.997Z,99601.95
2022-10-23T10:34:37.182Z,99601.44
2022-10-23T10:35:42.908Z,99597.05
2022-10-23T10:36:47.042Z,99598.8
2022-10-23T10:37:51.891Z,99606.25
2022-10-23T10:38:56.743Z,99592.91
2022-10-23T10:40:00.890Z,99603.91
2022-10-23T10:41:05.074Z,99599.11
2022-10-23T10:42:09.222Z,99600.45
2022-10-23T10:43:13.361Z,99598.7
2022-10-23T10:44:17.519Z,99595.38
2022-10-23T10:45:23.467Z,99594.6
2022-10-23T10:46:27.727Z,99596.95
2022-10-23T10:47:31.847Z,99594.94
2022-10-23T10:48:35.958Z,99591.44
2022-10-23T10:49:40.090Z,99603.63
2022-10-23T10:50:45.359Z,99586.7
2022-10-23T10:51:49.621Z,99591.84
2022-10-23T10:52:53.916Z,99588.98
2022-10-23T10:53:58.149Z,99588.86
2022-10-23T10:55:04.012Z,99585.29
2022-10-23T10:57:14.909Z,99584.84
2022-10-23T10:58:19.118Z,99575.86
2022-10-23T10:59:23.278Z,99574.56
2022-10-23T11:00:30.563Z,99569.57
2022-10-23T11:01:35.236Z,99579.7
2022-10-23T11:02:39.679Z,99574.34
2022-10-23T11:03:43.824Z,99579.44
2022-10-23T11:04:47.971Z,99574.48
2022-10-23T11:05:52.247Z,99564.36
2022-10-23T11:06:56.420Z,99571.06
2022-10-23T11:08:00.557Z,99575.61
2022-10-23T11:09:21.328Z,99569.91
2022-10-23T11:10:25.478Z,99564.95
2022-10-23T11:11:29.655Z,99564.51
2022-10-23T11:12:33.805Z,99556.88
2022-10-23T11:13:37.931Z,99557.5
2022-10-23T11:14:42.074Z,99550.24
2022-10-23T11:15:46.312Z,99563.09
2022-10-23T11:16:51.091Z,99558.52
2022-10-23T11:17:55.213Z,99548.19
2022-10-23T11:18:59.319Z,99549.68
2022-10-23T11:20:03.437Z,99549.27
2022-10-23T11:21:07.664Z,99547.08
2022-10-23T11:22:11.826Z,99548.15
2022-10-23T11:23:15.931Z,99539.84
2022-10-23T11:24:20.121Z,99544.73
2022-10-23T11:25:24.282Z,99542.38
2022-10-23T11:26:28.402Z,99541.23
2022-10-23T11:27:32.484Z,99532.84
2022-10-23T11:28:36.618Z,99536.87
2022-10-23T11:29:40.723Z,99547.74
2022-10-23T11:30:44.902Z,99538.14
2022-10-23T11:31:49.002Z,99537.76
2022-10-23T11:32:53.163Z,99533.18
2022-10-23T11:33:57.265Z,99527.19
2022-10-23T11:35:01.463Z,99530.31
2022-10-23T11:36:05.601Z,99533.66
2022-10-23T11:37:09.769Z,99531.37
2022-10-23T11:38:13.902Z,99525.3
2022-10-23T11:39:18.018Z,99533.27
2022-10-23T11:40:22.183Z,99529.53
2022-10-23T11:41:28.083Z,99534.27
2022-10-23T11:42:32.341Z,99534.84
2022-10-23T11:43:36.436Z,99533.88
2022-10-23T11:44:43.641Z,99525.2
2022-10-23T11:45:47.814Z,99522.3
2022-10-23T11:46:51.945Z,99523
2022-10-23T11:47:56.055Z,99526.09
2022-10-23T11:49:00.274Z,99532.12
2022-10-23T11:50:07.538Z,99502.83
2022-10-23T11:51:11.757Z,99526.73
2022-10-23T11:52:22.371Z,99525.8
2022-10-23T11:53:27.678Z,99518.46
2022-10-23T11:54:31.878Z,99519.95
2022-10-23T11:55:36.028Z,99514.58
2022-10-23T11:56:40.153Z,99516
2022-10-23T11:57:44.313Z,99521.7
2022-10-23T11:58:50.979Z,99517.67
2022-10-23T11:59:55.182Z,99523.12
2022-10-23T12:01:07.065Z,99512.05
2022-10-23T12:02:11.620Z,99512.47
2022-10-23T12:03:15.921Z,99512.87
2022-10-23T12:04:20.040Z,99508.11
2022-10-23T12:05:24.170Z,99510.66
2022-10-23T12:06:28.312Z,99509.2
2022-10-23T12:07:32.449Z,99503.5
2022-10-23T12:08:36.623Z,99504.36
2022-10-23T12:09:40.735Z,99496.58
2022-10-23T12:10:44.830Z,99504.55
2022-10-23T12:11:48.984Z,99506.52
2022-10-23T12:12:53.091Z,99494.34
2022-10-23T12:13:57.259Z,99502.35
2022-10-23T12:15:01.418Z,99497.99
2022-10-23T12:16:05.584Z,99497.17
2022-10-23T12:17:09.724Z,99494.6
2022-10-23T12:18:13.898Z,99495.31
2022-10-23T12:19:18.004Z,99484.67
2022-10-23T12:20:22.190Z,99476.52
2022-10-23T12:21:26.370Z,99485.38
2022-10-23T12:23:37.649Z,99474.49
2022-10-23T12:24:43.623Z,99473.78
2022-10-23T12:25:50.317Z,99471.84
2022-10-23T12:26:54.469Z,99470.28
2022-10-23T12:27:58.637Z,99463.62
2022-10-23T12:29:02.766Z,99462.4
2022-10-23T12:30:06.883Z,99451.34
2022-10-23T12:31:10.990Z,99462.43
2022-10-23T12:32:15.124Z,99457.26
2022-10-23T12:33:19.229Z,99456.14
2022-10-23T12:34:23.391Z,99458.69
2022-10-23T12:35:27.599Z,99452.64
2022-10-23T12:36:31.743Z,99429.89
2022-10-23T12:37:35.925Z,99451.58
2022-10-23T12:38:40.088Z,99460.28
2022-10-23T12:39:44.244Z,99455.41
2022-10-23T12:40:48.679Z,99449.16
2022-10-23T12:41:52.872Z,99450.75
2022-10-23T12:42:57.060Z,99444.98
2022-10-23T12:44:01.235Z,99451.38
2022-10-23T12:45:05.422Z,99446.48
2022-10-23T12:46:11.230Z,99445.17
2022-10-23T12:47:20.152Z,99445.73
2022-10-23T12:48:24.307Z,99448.83